Time;durP1;ratioP1;P1;durP2;ratioP2;P2;SDS_P1;SDS_P2;PMS_P1;PMS_P2;Temp;Humidity;BMP_temperature;BMP_pressure;BME280_temperature;BME280_humidity;BME280_pressure;Samples;Min_cycle;Max_cycle;Signal;HPM_P1;HPM_P2
2022/11/18 00:00:34;;;;;;;6.07;2.60;;;;;;;7.30;100.00;99319.69;4974503;28;20042;-80
2022/11/18 00:02:59;;;;;;;12.07;2.97;;;;;;;7.34;100.00;99320.16;4973402;28;20535;-84
2022/11/18 00:05:25;;;;;;;8.32;2.90;;;;;;;7.39;100.00;99321.25;4986377;28;20034;-80
2022/11/18 00:07:50;;;;;;;6.60;2.45;;;;;;;7.36;100.00;99326.72;4979819;28;20033;-80
2022/11/18 00:10:17;;;;;;;8.88;3.08;;;;;;;7.34;100.00;99333.03;4972550;28;20038;-82
2022/11/18 00:15:26;;;;;;;8.40;2.58;;;;;;;7.35;100.00;99340.63;4991855;28;20105;-83
2022/11/18 00:17:52;;;;;;;11.52;2.78;;;;;;;7.31;100.00;99339.34;4976045;28;20038;-83
2022/11/18 00:20:17;;;;;;;9.18;3.22;;;;;;;7.35;100.00;99338.03;4986354;28;20038;-80
2022/11/18 00:22:45;;;;;;;12.02;3.05;;;;;;;7.49;100.00;99343.44;4985035;28;20122;-79
2022/11/18 00:25:10;;;;;;;12.85;3.17;;;;;;;7.48;100.00;99342.63;4985440;28;20034;-85
2022/11/18 00:27:36;;;;;;;16.85;3.25;;;;;;;7.49;100.00;99338.28;4993829;28;20096;-81
2022/11/18 00:30:01;;;;;;;9.10;3.30;;;;;;;7.40;100.00;99340.09;4994116;28;20042;-82
2022/11/18 00:32:27;;;;;;;10.82;2.70;;;;;;;7.33;100.00;99339.97;4978250;28;20038;-81
2022/11/18 00:34:52;;;;;;;14.40;2.80;;;;;;;7.28;100.00;99338.88;4983349;28;20041;-81
2022/11/18 00:37:18;;;;;;;6.85;2.72;;;;;;;7.27;100.00;99348.41;4987205;28;20049;-81
2022/11/18 00:39:43;;;;;;;10.35;3.20;;;;;;;7.27;100.00;99350.16;4974950;28;20026;-80
2022/11/18 00:45:02;;;;;;;10.30;2.92;;;;;;;7.36;100.00;99351.72;4994085;28;20038;-81
2022/11/18 00:47:27;;;;;;;8.60;3.00;;;;;;;7.37;100.00;99351.56;4974664;28;20038;-81
2022/11/18 00:49:53;;;;;;;15.05;3.88;;;;;;;7.33;100.00;99360.63;4975789;28;20681;-83
2022/11/18 00:52:18;;;;;;;10.63;3.42;;;;;;;7.26;100.00;99364.03;4991456;28;20041;-83
2022/11/18 00:54:44;;;;;;;8.77;3.08;;;;;;;7.29;100.00;99368.84;4984866;28;20041;-81
2022/11/18 00:57:09;;;;;;;8.65;3.40;;;;;;;7.25;100.00;99373.53;4962094;28;20042;-82
2022/11/18 00:59:47;;;;;;;11.32;3.05;;;;;;;7.24;100.00;99366.00;4976950;28;20108;-80
2022/11/18 01:02:12;;;;;;;7.32;3.55;;;;;;;7.32;100.00;99376.25;4988953;28;20046;-81
2022/11/18 01:04:37;;;;;;;7.43;3.05;;;;;;;7.38;100.00;99378.16;4976786;28;20483;-81
2022/11/18 01:07:03;;;;;;;13.70;3.33;;;;;;;7.41;100.00;99386.34;4984913;28;20038;-81
2022/11/18 01:09:28;;;;;;;14.20;3.50;;;;;;;7.38;100.00;99383.31;4992042;28;20037;-81
2022/11/18 01:14:41;;;;;;;13.02;3.33;;;;;;;7.30;100.00;99389.31;4995108;28;20037;-80
2022/11/18 01:17:07;;;;;;;10.32;4.35;;;;;;;7.38;100.00;99385.88;4983540;28;20125;-80
2022/11/18 01:19:33;;;;;;;9.63;3.80;;;;;;;7.34;100.00;99390.56;4992973;28;20037;-80
2022/11/18 01:22:01;;;;;;;12.43;4.68;;;;;;;7.36;100.00;99390.41;4988793;28;20031;-80
2022/11/18 01:24:32;;;;;;;12.50;4.20;;;;;;;7.36;100.00;99380.09;4977979;28;20476;-82
2022/11/18 01:27:32;;;;;;;17.63;5.63;;;;;;;7.32;100.00;99392.53;4953256;28;20093;-85
2022/11/18 01:29:58;;;;;;;12.30;4.60;;;;;;;7.40;100.00;99394.25;4984382;28;20665;-80
2022/11/18 01:32:23;;;;;;;14.85;4.43;;;;;;;7.41;100.00;99395.88;4958178;28;20049;-80
2022/11/18 01:34:49;;;;;;;10.88;4.47;;;;;;;7.41;100.00;99399.25;4982718;28;20030;-80
2022/11/18 01:37:14;;;;;;;19.75;4.65;;;;;;;7.43;100.00;99401.66;4988003;28;20042;-83
2022/11/18 01:39:42;;;;;;;14.65;4.10;;;;;;;7.41;100.00;99403.59;4971057;28;20030;-79
2022/11/18 01:42:16;;;;;;;11.48;4.03;;;;;;;7.40;100.00;99400.22;4987067;28;20606;-79
2022/11/18 01:45:09;;;;;;;13.48;4.10;;;;;;;7.50;100.00;99406.97;4991234;28;20072;-80
2022/11/18 01:47:44;;;;;;;11.90;4.10;;;;;;;7.50;100.00;99412.13;4973365;28;20074;-79
2022/11/18 01:50:11;;;;;;;12.88;3.67;;;;;;;7.58;100.00;99417.22;4975261;28;20038;-80
2022/11/18 01:52:36;;;;;;;10.63;4.20;;;;;;;7.64;100.00;99415.75;4972747;28;20069;-80
2022/11/18 01:55:09;;;;;;;9.45;3.85;;;;;;;7.59;100.00;99413.66;4979389;28;20030;-80
2022/11/18 01:57:35;;;;;;;14.27;3.75;;;;;;;7.59;100.00;99411.91;5007391;28;20070;-80
2022/11/18 02:00:04;;;;;;;13.90;3.95;;;;;;;7.59;100.00;99416.22;4980682;28;20062;-81
2022/11/18 02:02:36;;;;;;;10.93;3.25;;;;;;;7.53;100.00;99417.72;4992795;28;20462;-80
2022/11/18 02:05:04;;;;;;;12.52;3.92;;;;;;;7.53;100.00;99416.91;4986927;28;20034;-80
2022/11/18 02:07:33;;;;;;;9.85;3.88;;;;;;;7.45;100.00;99417.75;4983144;28;20038;-80
2022/11/18 02:10:02;;;;;;;8.60;3.70;;;;;;;7.43;100.00;99424.88;4986793;28;20061;-80
2022/11/18 02:12:28;;;;;;;12.18;3.95;;;;;;;7.41;100.00;99427.63;4971449;28;20084;-80
2022/11/18 02:14:54;;;;;;;10.43;3.35;;;;;;;7.44;100.00;99429.06;4974573;28;20047;-80
2022/11/18 02:17:28;;;;;;;8.68;3.20;;;;;;;7.43;100.00;99429.22;4988537;28;20104;-81
2022/11/18 02:20:38;;;;;;;15.32;4.00;;;;;;;7.42;100.00;99438.72;4987510;28;20038;-84
2022/11/18 02:23:26;;;;;;;10.23;3.75;;;;;;;7.45;100.00;99446.13;4973732;28;20050;-84
2022/11/18 02:26:19;;;;;;;11.32;4.05;;;;;;;7.53;100.00;99448.66;4962808;28;20077;-80
2022/11/18 02:29:07;;;;;;;11.60;3.60;;;;;;;7.51;100.00;99444.66;4983155;28;20031;-80
2022/11/18 02:31:56;;;;;;;13.90;4.65;;;;;;;7.43;100.00;99447.28;4974193;28;20449;-80
2022/11/18 02:34:49;;;;;;;11.95;3.85;;;;;;;7.46;100.00;99450.34;4990125;28;20018;-86
2022/11/18 02:37:21;;;;;;;8.20;3.72;;;;;;;7.40;100.00;99453.56;4978083;28;20069;-80
2022/11/18 02:40:08;;;;;;;7.15;3.63;;;;;;;7.53;100.00;99448.66;5008918;28;20053;-80
2022/11/18 02:42:36;;;;;;;15.18;3.67;;;;;;;7.52;100.00;99454.03;4973986;28;20034;-80
2022/11/18 02:45:09;;;;;;;8.48;3.50;;;;;;;7.46;100.00;99449.50;4982153;28;20043;-84
2022/11/18 02:47:36;;;;;;;8.63;3.10;;;;;;;7.49;100.00;99452.56;4975609;28;20454;-80
2022/11/18 02:50:08;;;;;;;11.20;4.38;;;;;;;7.44;100.00;99456.63;4985560;28;20122;-80
2022/11/18 02:52:36;;;;;;;10.02;3.60;;;;;;;7.39;100.00;99454.56;4974139;28;20049;-80
2022/11/18 02:55:06;;;;;;;11.18;4.63;;;;;;;7.37;100.00;99462.44;4986076;28;20487;-80
2022/11/18 02:57:33;;;;;;;8.35;3.28;;;;;;;7.36;100.00;99462.63;4958103;28;20030;-80
2022/11/18 02:59:58;;;;;;;8.75;3.45;;;;;;;7.36;100.00;99465.19;4992358;28;20510;-81
2022/11/18 03:02:23;;;;;;;6.90;3.03;;;;;;;7.34;100.00;99465.34;4987181;28;20046;-80
2022/11/18 03:04:55;;;;;;;8.93;3.42;;;;;;;7.33;100.00;99473.28;4993722;28;20034;-80
2022/11/18 03:07:30;;;;;;;14.05;3.08;;;;;;;7.34;100.00;99467.13;4995580;28;20466;-81
2022/11/18 03:09:58;;;;;;;6.00;3.13;;;;;;;7.32;100.00;99471.66;4976891;28;20038;-83
2022/11/18 03:13:07;;;;;;;8.45;3.00;;;;;;;7.32;100.00;99469.09;4993523;28;20038;-80
2022/11/18 03:15:59;;;;;;;7.20;3.33;;;;;;;7.30;100.00;99476.19;4972149;28;20049;-80
2022/11/18 03:18:38;;;;;;;7.90;2.90;;;;;;;7.31;100.00;99482.94;4991756;28;20046;-80
2022/11/18 03:21:11;;;;;;;12.55;2.88;;;;;;;7.29;100.00;99483.13;4974724;28;20880;-82
2022/11/18 03:23:47;;;;;;;12.65;2.40;;;;;;;7.28;100.00;99486.66;4976816;28;20057;-80
2022/11/18 03:26:27;;;;;;;7.93;2.70;;;;;;;7.29;100.00;99496.03;4956806;28;20562;-80
2022/11/18 03:29:16;;;;;;;11.43;2.90;;;;;;;7.27;100.00;99490.22;4976883;28;20037;-80
2022/11/18 03:31:54;;;;;;;8.05;3.05;;;;;;;7.21;100.00;99485.72;4987036;28;20038;-82
2022/11/18 03:34:40;;;;;;;10.98;2.50;;;;;;;7.20;100.00;99494.44;4979474;28;20117;-80
2022/11/18 03:37:10;;;;;;;7.22;2.47;;;;;;;7.19;100.00;99495.38;4988848;28;20061;-80
2022/11/18 03:39:41;;;;;;;6.72;2.40;;;;;;;7.19;100.00;99514.22;4974711;28;20044;-80
2022/11/18 03:42:14;;;;;;;6.35;2.63;;;;;;;7.19;100.00;99513.44;4970108;28;20058;-81
2022/11/18 03:44:46;;;;;;;7.63;2.60;;;;;;;7.19;100.00;99516.00;4972348;28;20446;-80
2022/11/18 03:47:18;;;;;;;11.13;2.80;;;;;;;7.18;100.00;99522.94;4983884;28;20486;-80
2022/11/18 03:49:59;;;;;;;11.82;3.03;;;;;;;7.18;100.00;99522.16;4984147;28;20069;-88
2022/11/18 03:52:30;;;;;;;12.70;3.08;;;;;;;7.17;100.00;99520.53;4972098;28;20046;-82
2022/11/18 03:55:01;;;;;;;5.57;2.95;;;;;;;7.17;100.00;99530.84;4974184;28;20034;-81
2022/11/18 03:57:33;;;;;;;9.95;3.20;;;;;;;7.16;100.00;99530.03;4975459;28;20039;-79
2022/11/18 04:00:06;;;;;;;9.75;4.70;;;;;;;7.18;100.00;99530.69;4992970;28;20034;-80
2022/11/18 04:02:33;;;;;;;7.47;3.65;;;;;;;7.16;100.00;99535.19;4970111;28;20494;-82
2022/11/18 04:05:00;;;;;;;10.77;3.65;;;;;;;7.17;100.00;99539.38;4969025;28;20038;-80
2022/11/18 04:07:39;;;;;;;7.90;3.03;;;;;;;7.16;100.00;99537.78;4971706;28;20518;-79
2022/11/18 04:10:16;;;;;;;5.50;3.10;;;;;;;7.15;100.00;99548.25;4970788;28;20026;-80
2022/11/18 04:12:50;;;;;;;10.27;3.20;;;;;;;7.16;100.00;99549.88;4956344;28;20125;-79
2022/11/18 04:15:17;;;;;;;7.47;2.72;;;;;;;7.15;100.00;99559.38;4969671;28;20136;-79
2022/11/18 04:17:43;;;;;;;9.70;2.67;;;;;;;7.16;100.00;99560.19;4974299;28;20557;-80
2022/11/18 04:20:15;;;;;;;8.63;2.75;;;;;;;7.16;100.00;99567.94;4992008;28;20034;-79
2022/11/18 04:22:40;;;;;;;12.53;3.40;;;;;;;7.24;100.00;99567.09;4989686;28;20038;-81
2022/11/18 04:25:06;;;;;;;10.10;3.15;;;;;;;7.20;100.00;99571.78;4983559;28;20027;-81
2022/11/18 04:27:31;;;;;;;9.40;2.75;;;;;;;7.19;100.00;99570.16;5003613;28;20068;-80
2022/11/18 04:29:57;;;;;;;8.57;2.72;;;;;;;7.17;100.00;99574.69;5005333;28;20093;-79
2022/11/18 04:32:22;;;;;;;9.75;3.00;;;;;;;7.19;100.00;99577.88;4974663;28;20043;-81
2022/11/18 04:34:48;;;;;;;7.88;2.55;;;;;;;7.17;100.00;99570.31;4990390;28;20045;-79
2022/11/18 04:37:13;;;;;;;7.05;2.42;;;;;;;7.20;100.00;99576.94;4987322;28;20038;-80
2022/11/18 04:39:38;;;;;;;5.40;2.05;;;;;;;7.19;100.00;99581.25;4973818;28;20062;-80
2022/11/18 04:42:04;;;;;;;8.55;2.70;;;;;;;7.20;100.00;99582.09;4984578;28;20038;-82
2022/11/18 04:44:31;;;;;;;7.50;2.42;;;;;;;7.32;100.00;99577.38;4989156;28;20117;-79
2022/11/18 04:46:59;;;;;;;5.28;2.38;;;;;;;7.34;100.00;99580.59;4992938;28;20036;-81
2022/11/18 04:49:31;;;;;;;4.72;2.42;;;;;;;7.31;100.00;99583.50;4969659;28;20138;-83
2022/11/18 04:51:57;;;;;;;5.97;2.50;;;;;;;7.30;100.00;99589.66;4977028;28;20050;-79
2022/11/18 04:54:24;;;;;;;9.40;2.40;;;;;;;7.29;100.00;99591.44;4990749;28;20085;-80
2022/11/18 04:56:50;;;;;;;6.30;2.70;;;;;;;7.28;100.00;99592.38;4982322;28;20046;-80
2022/11/18 04:59:19;;;;;;;3.80;2.15;;;;;;;7.29;100.00;99588.84;4990075;28;20084;-79
2022/11/18 05:01:45;;;;;;;9.95;2.85;;;;;;;7.31;100.00;99596.41;4994070;28;20077;-79
2022/11/18 05:04:13;;;;;;;6.07;2.33;;;;;;;7.32;100.00;99600.59;4972872;28;20508;-80
2022/11/18 05:06:38;;;;;;;13.00;2.97;;;;;;;7.33;100.00;99600.44;4972549;28;20042;-79
2022/11/18 05:09:04;;;;;;;8.80;2.17;;;;;;;7.35;100.00;99605.44;4993971;28;20852;-80
2022/11/18 05:14:13;;;;;;;14.35;3.00;;;;;;;7.39;100.00;99602.34;4976582;28;20034;-80
2022/11/18 05:16:39;;;;;;;11.50;2.72;;;;;;;7.43;100.00;99612.34;5011439;28;20047;-80
2022/11/18 05:19:05;;;;;;;9.63;2.60;;;;;;;7.43;100.00;99609.78;4975645;28;20439;-80
2022/11/18 05:21:31;;;;;;;11.73;2.55;;;;;;;7.41;100.00;99608.16;5010490;28;20043;-80
2022/11/18 05:24:01;;;;;;;8.48;2.20;;;;;;;7.43;100.00;99609.78;4982557;28;20034;-82
2022/11/18 05:26:27;;;;;;;9.40;2.38;;;;;;;7.40;100.00;99614.28;4984914;28;20042;-80
2022/11/18 05:28:53;;;;;;;9.30;2.25;;;;;;;7.41;100.00;99612.50;5005116;28;20030;-80
2022/11/18 05:31:18;;;;;;;11.00;2.63;;;;;;;7.43;100.00;99618.31;4990914;28;20041;-80
2022/11/18 05:33:44;;;;;;;10.27;2.13;;;;;;;7.44;100.00;99616.53;4977002;28;20035;-80
2022/11/18 05:36:13;;;;;;;7.35;2.50;;;;;;;7.48;100.00;99620.38;4978077;28;20119;-80
2022/11/18 05:38:39;;;;;;;5.25;1.77;;;;;;;7.44;100.00;99624.25;4987881;28;20036;-81
2022/11/18 05:41:05;;;;;;;6.80;2.58;;;;;;;7.47;100.00;99632.50;4981103;28;20037;-79
2022/11/18 05:43:31;;;;;;;4.57;2.25;;;;;;;7.45;100.00;99625.88;4977877;28;20397;-80
2022/11/18 05:45:57;;;;;;;7.22;1.95;;;;;;;7.45;100.00;99628.47;4967412;28;20053;-82
2022/11/18 05:48:23;;;;;;;8.18;2.28;;;;;;;7.44;100.00;99632.84;4995027;28;20054;-81
2022/11/18 05:50:51;;;;;;;6.45;1.67;;;;;;;7.55;100.00;99644.56;4995371;28;20069;-82
2022/11/18 05:53:18;;;;;;;13.63;2.60;;;;;;;7.53;100.00;99634.41;4996858;28;20491;-83
2022/11/18 05:55:50;;;;;;;11.65;2.88;;;;;;;7.58;100.00;99637.31;4988665;28;20038;-75
2022/11/18 05:58:15;;;;;;;7.55;2.40;;;;;;;7.67;100.00;99643.25;4982880;28;20056;-82
2022/11/18 06:00:41;;;;;;;4.25;1.95;;;;;;;7.64;100.00;99643.56;4988311;28;20045;-81
2022/11/18 06:03:15;;;;;;;6.53;1.77;;;;;;;7.62;100.00;99649.88;4994195;28;20066;-80
2022/11/18 06:05:41;;;;;;;7.18;1.80;;;;;;;7.66;100.00;99651.16;4980740;28;20663;-80
2022/11/18 06:08:10;;;;;;;12.93;2.20;;;;;;;7.67;100.00;99655.38;4980387;28;20045;-81
2022/11/18 06:10:37;;;;;;;13.02;2.20;;;;;;;7.70;100.00;99657.59;4993371;28;20073;-80
2022/11/18 06:13:07;;;;;;;5.45;1.85;;;;;;;7.65;100.00;99658.09;4972465;28;20046;-81
2022/11/18 06:15:39;;;;;;;7.40;2.15;;;;;;;7.71;100.00;99669.53;4990738;28;20038;-79
2022/11/18 06:18:15;;;;;;;8.07;2.00;;;;;;;7.65;100.00;99670.19;4989704;28;20129;-80
2022/11/18 06:20:41;;;;;;;5.90;1.92;;;;;;;7.60;100.00;99684.38;4976496;28;20045;-81
2022/11/18 06:23:07;;;;;;;7.20;1.92;;;;;;;7.58;100.00;99683.75;4980673;28;20038;-81
2022/11/18 06:25:32;;;;;;;8.65;2.20;;;;;;;7.70;100.00;99688.56;4975176;28;20491;-80
2022/11/18 06:28:00;;;;;;;6.43;2.78;;;;;;;7.66;100.00;99684.69;4984417;28;20050;-83
2022/11/18 06:30:26;;;;;;;3.50;1.88;;;;;;;7.58;100.00;99688.91;4973578;28;20384;-80
2022/11/18 06:32:51;;;;;;;9.00;2.22;;;;;;;7.61;100.00;99690.38;4990105;28;20049;-80
2022/11/18 06:35:17;;;;;;;6.22;2.05;;;;;;;7.55;100.00;99696.97;4983812;28;20026;-81
2022/11/18 06:37:42;;;;;;;14.85;3.85;;;;;;;7.57;100.00;99699.38;4960397;28;20574;-82
2022/11/18 06:40:08;;;;;;;7.80;2.20;;;;;;;7.55;100.00;99704.72;4989420;28;20473;-80
2022/11/18 06:45:26;;;;;;;6.78;2.05;;;;;;;7.60;100.00;99712.75;4986417;28;20103;-81
2022/11/18 06:47:56;;;;;;;5.88;1.90;;;;;;;7.51;100.00;99716.31;5001959;28;20050;-81
2022/11/18 06:50:21;;;;;;;6.57;2.05;;;;;;;7.48;100.00;99718.41;4975220;28;20070;-80
2022/11/18 06:52:47;;;;;;;4.55;1.80;;;;;;;7.45;100.00;99724.69;4979905;28;20114;-81
2022/11/18 06:55:12;;;;;;;8.00;2.13;;;;;;;7.44;100.00;99722.28;4977723;28;20406;-81
2022/11/18 06:57:37;;;;;;;6.90;2.17;;;;;;;7.45;100.00;99723.91;4987319;28;20578;-80
2022/11/18 07:00:04;;;;;;;4.28;2.22;;;;;;;7.42;100.00;99730.19;4989881;28;20046;-82
2022/11/18 07:02:30;;;;;;;9.70;2.70;;;;;;;7.45;100.00;99734.22;4990456;28;20069;-81
2022/11/18 07:04:55;;;;;;;7.30;2.22;;;;;;;7.44;100.00;99736.00;4977374;28;20399;-82
2022/11/18 07:07:21;;;;;;;5.43;2.13;;;;;;;7.43;100.00;99736.16;4976143;28;20058;-82
2022/11/18 07:09:46;;;;;;;11.10;2.75;;;;;;;7.45;100.00;99741.97;4975998;28;20035;-81
2022/11/18 07:12:12;;;;;;;7.30;3.20;;;;;;;7.44;100.00;99741.16;4978204;28;20049;-82
2022/11/18 07:14:37;;;;;;;8.65;4.00;;;;;;;7.40;100.00;99747.59;4974693;28;20061;-81
2022/11/18 07:17:03;;;;;;;10.07;2.50;;;;;;;7.58;100.00;99753.41;4974915;28;20042;-83
2022/11/18 07:19:28;;;;;;;14.95;3.05;;;;;;;7.52;100.00;99754.06;4978938;28;20033;-81
2022/11/18 07:21:53;;;;;;;6.28;2.80;;;;;;;7.46;100.00;99765.03;4979364;28;20088;-81
2022/11/18 07:24:19;;;;;;;12.07;4.53;;;;;;;7.52;100.00;99755.84;4993703;28;20053;-82
2022/11/18 07:26:45;;;;;;;9.88;5.18;;;;;;;7.58;100.00;99775.81;4990566;28;20046;-81
2022/11/18 07:29:11;;;;;;;16.38;8.68;;;;;;;7.53;100.00;99771.13;4993145;28;20035;-79
2022/11/18 07:31:38;;;;;;;9.35;3.85;;;;;;;7.53;100.00;99778.88;4952954;28;20411;-83
2022/11/18 07:34:03;;;;;;;18.80;5.80;;;;;;;7.52;100.00;99781.63;4995178;28;20398;-80
2022/11/18 07:36:29;;;;;;;11.55;4.10;;;;;;;7.53;100.00;99785.81;4973638;28;20035;-79
2022/11/18 07:38:58;;;;;;;7.63;5.25;;;;;;;7.62;100.00;99786.63;4981689;28;20030;-81
2022/11/18 07:41:26;;;;;;;14.38;4.63;;;;;;;7.83;100.00;99792.09;4974887;28;20050;-79
2022/11/18 07:43:54;;;;;;;15.30;6.93;;;;;;;7.76;100.00;99791.13;5006969;28;20037;-80
2022/11/18 07:46:26;;;;;;;8.48;2.90;;;;;;;7.72;100.00;99789.84;4995463;28;20142;-81
2022/11/18 07:48:53;;;;;;;11.52;7.60;;;;;;;7.66;100.00;99798.22;4974227;28;20045;-83
2022/11/18 07:51:24;;;;;;;9.25;4.82;;;;;;;7.60;100.00;99803.06;4991545;28;20741;-83
2022/11/18 07:53:50;;;;;;;14.52;6.78;;;;;;;7.69;100.00;99805.66;4976694;28;20041;-81
2022/11/18 07:56:16;;;;;;;13.63;5.65;;;;;;;7.60;100.00;99813.38;4974303;28;20050;-82
2022/11/18 07:58:42;;;;;;;6.95;3.28;;;;;;;7.58;100.00;99822.25;4989569;28;20051;-82
2022/11/18 08:01:16;;;;;;;8.38;2.90;;;;;;;7.54;100.00;99816.59;4958465;28;20810;-81
2022/11/18 08:03:42;;;;;;;6.80;3.10;;;;;;;7.51;100.00;99822.06;4979232;28;20026;-81
2022/11/18 08:06:09;;;;;;;5.85;2.80;;;;;;;7.52;100.00;99828.06;4989153;28;20104;-81
2022/11/18 08:08:35;;;;;;;5.72;2.75;;;;;;;7.49;100.00;99824.00;4975618;28;20052;-82
2022/11/18 08:11:02;;;;;;;7.18;2.47;;;;;;;7.48;100.00;99822.41;4971507;28;20077;-82
2022/11/18 08:13:28;;;;;;;4.85;2.20;;;;;;;7.47;100.00;99831.09;4983080;28;20028;-81
2022/11/18 08:15:55;;;;;;;7.32;2.67;;;;;;;7.47;100.00;99831.09;4972342;28;20035;-84
2022/11/18 08:18:21;;;;;;;7.15;3.17;;;;;;;7.46;100.00;99834.66;4994266;28;20026;-82
2022/11/18 08:20:47;;;;;;;6.63;2.72;;;;;;;7.49;100.00;99847.22;4992300;28;20038;-81
2022/11/18 08:23:13;;;;;;;7.63;2.40;;;;;;;7.50;100.00;99841.13;4968730;28;20039;-83
2022/11/18 08:25:39;;;;;;;4.35;2.83;;;;;;;7.52;100.00;99856.44;4973101;28;20069;-82
2022/11/18 08:28:05;;;;;;;7.93;3.33;;;;;;;7.57;100.00;99846.44;4989532;28;20073;-81
2022/11/18 08:30:32;;;;;;;5.38;2.40;;;;;;;7.59;100.00;99854.81;4965971;28;20096;-81
2022/11/18 08:32:57;;;;;;;9.70;3.85;;;;;;;7.60;100.00;99852.09;4975602;28;20042;-82
2022/11/18 08:35:25;;;;;;;7.78;3.90;;;;;;;7.60;100.00;99851.28;4970463;28;20388;-83
2022/11/18 08:37:50;;;;;;;18.45;3.50;;;;;;;7.57;100.00;99860.16;4969701;28;20040;-81
2022/11/18 08:40:16;;;;;;;12.13;3.20;;;;;;;7.58;100.00;99856.59;4972706;28;20039;-82
2022/11/18 08:42:41;;;;;;;9.60;3.28;;;;;;;7.65;100.00;99861.94;4977225;28;20037;-82
2022/11/18 08:45:07;;;;;;;9.73;3.92;;;;;;;7.72;100.00;99868.09;4996429;28;20054;-81
2022/11/18 08:47:33;;;;;;;13.85;5.70;;;;;;;7.71;100.00;99869.03;5000631;28;20034;-81
2022/11/18 08:50:01;;;;;;;10.57;3.47;;;;;;;7.80;100.00;99860.34;4975102;28;20042;-81
2022/11/18 08:52:26;;;;;;;8.50;2.72;;;;;;;7.88;100.00;99864.69;4977722;28;20053;-85
2022/11/18 08:54:52;;;;;;;9.43;5.32;;;;;;;7.93;100.00;99866.78;4989235;28;20038;-81
2022/11/18 08:57:17;;;;;;;19.90;8.32;;;;;;;7.89;100.00;99866.31;4991104;28;20046;-79
2022/11/18 08:59:42;;;;;;;8.48;3.50;;;;;;;7.92;100.00;99860.81;4998034;28;20041;-82
2022/11/18 09:02:14;;;;;;;7.88;4.68;;;;;;;7.97;100.00;99868.91;4977646;28;20053;-82
2022/11/18 09:04:40;;;;;;;11.80;4.50;;;;;;;7.94;100.00;99868.41;4978908;28;20037;-81
2022/11/18 09:07:06;;;;;;;7.63;3.80;;;;;;;7.96;100.00;99875.00;4992564;28;20519;-83
2022/11/18 09:09:32;;;;;;;15.13;3.70;;;;;;;8.00;100.00;99870.34;4990671;28;20048;-81
2022/11/18 09:11:57;;;;;;;7.90;3.03;;;;;;;8.02;100.00;99872.75;4985969;28;20046;-82
2022/11/18 09:14:23;;;;;;;9.35;3.50;;;;;;;8.19;100.00;99880.34;4990351;28;20022;-82
2022/11/18 09:16:49;;;;;;;9.15;4.07;;;;;;;8.25;100.00;99873.72;4994133;28;20041;-82
2022/11/18 09:19:15;;;;;;;10.05;2.95;;;;;;;8.29;100.00;99879.38;4976823;28;20390;-82
2022/11/18 09:21:42;;;;;;;8.65;3.80;;;;;;;8.32;100.00;99879.84;4990269;28;20047;-82
2022/11/18 09:24:09;;;;;;;9.52;4.03;;;;;;;8.43;100.00;99880.50;4982237;28;20048;-82
2022/11/18 09:26:35;;;;;;;14.30;3.78;;;;;;;8.43;100.00;99886.47;4990386;28;20047;-82
2022/11/18 09:29:01;;;;;;;15.57;5.47;;;;;;;8.41;100.00;99890.97;4980984;28;20038;-82
2022/11/18 09:31:26;;;;;;;11.88;4.60;;;;;;;8.47;100.00;99889.53;4976973;28;20038;-81
2022/11/18 09:33:51;;;;;;;7.05;2.42;;;;;;;8.64;100.00;99896.28;4994566;28;20030;-82
2022/11/18 09:36:20;;;;;;;8.32;2.88;;;;;;;8.62;100.00;99894.84;4974609;28;20351;-81
2022/11/18 09:38:45;;;;;;;12.65;2.60;;;;;;;8.58;100.00;99902.13;4983766;28;20041;-82
2022/11/18 09:41:22;;;;;;;5.95;2.00;;;;;;;8.62;100.00;99903.41;4991684;28;20034;-82
2022/11/18 09:43:58;;;;;;;10.25;2.92;;;;;;;8.69;100.00;99906.13;4983307;28;20065;-81
2022/11/18 09:46:54;;;;;;;4.68;1.88;;;;;;;8.79;100.00;99911.13;4982576;28;20045;-82
2022/11/18 09:49:29;;;;;;;8.82;2.10;;;;;;;8.81;100.00;99909.16;4977214;28;20038;-82
2022/11/18 09:51:56;;;;;;;17.77;3.33;;;;;;;8.83;100.00;99920.16;5006898;28;20050;-81
2022/11/18 09:54:24;;;;;;;10.05;2.13;;;;;;;8.85;100.00;99919.00;5003684;28;20037;-82
2022/11/18 09:57:12;;;;;;;9.80;2.10;;;;;;;9.06;99.17;99923.66;4960338;28;20077;-80
2022/11/18 09:59:38;;;;;;;10.27;1.83;;;;;;;9.08;98.46;99926.88;4971832;28;20058;-81
2022/11/18 10:02:39;;;;;;;5.13;1.70;;;;;;;9.07;98.61;99925.25;4981137;28;20514;-78
2022/11/18 10:05:52;;;;;;;12.07;2.08;;;;;;;9.19;98.09;99930.03;4975865;28;20045;-81
2022/11/18 10:08:35;;;;;;;6.63;1.90;;;;;;;9.22;96.91;99930.53;4926488;28;20050;-82
2022/11/18 10:11:12;;;;;;;6.53;1.90;;;;;;;9.18;97.71;99938.81;4973927;28;20491;-82
2022/11/18 10:14:00;;;;;;;7.40;1.70;;;;;;;9.24;97.58;99940.72;4978852;28;20042;-82
2022/11/18 10:16:32;;;;;;;9.48;2.03;;;;;;;9.37;97.42;99942.75;4998422;28;20042;-79
2022/11/18 10:19:17;;;;;;;5.57;2.22;;;;;;;9.39;97.02;99946.78;4979592;28;20035;-80
2022/11/18 10:21:53;;;;;;;11.40;1.70;;;;;;;9.35;95.83;99950.69;4995998;28;20054;-80
2022/11/18 10:24:23;;;;;;;8.38;1.85;;;;;;;9.32;95.78;99959.59;4980428;28;20484;-77
2022/11/18 10:26:55;;;;;;;6.43;1.70;;;;;;;9.48;95.11;99956.13;4990832;28;20046;-82
2022/11/18 10:29:20;;;;;;;10.25;2.60;;;;;;;9.37;94.66;99959.09;4993059;28;20026;-77
2022/11/18 10:32:00;;;;;;;5.55;1.40;;;;;;;9.37;93.96;99964.25;4976151;28;20089;-80
2022/11/18 10:34:30;;;;;;;10.55;1.73;;;;;;;9.41;94.27;99964.72;4990821;28;20026;-82
2022/11/18 10:37:30;;;;;;;8.07;1.60;;;;;;;9.29;95.07;99964.31;4985699;28;20062;-82
2022/11/18 10:40:00;;;;;;;10.52;2.08;;;;;;;9.27;95.56;99963.66;4973800;28;20177;-83
2022/11/18 10:42:47;;;;;;;11.90;2.05;;;;;;;9.46;94.91;99970.22;4986640;28;20092;-81
2022/11/18 10:45:21;;;;;;;9.88;1.90;;;;;;;9.50;94.67;99980.03;4975295;28;20030;-77
2022/11/18 10:47:59;;;;;;;11.70;2.20;;;;;;;9.63;93.35;99971.75;4974765;28;20042;-80
2022/11/18 10:50:27;;;;;;;8.30;1.80;;;;;;;9.67;93.58;99975.59;4991587;28;20125;-78
2022/11/18 10:52:53;;;;;;;7.30;2.33;;;;;;;9.72;92.90;99978.50;4992472;28;20037;-81
2022/11/18 10:55:24;;;;;;;10.43;1.70;;;;;;;9.74;93.20;99975.75;4976859;28;20210;-79
2022/11/18 10:58:08;;;;;;;9.63;2.08;;;;;;;9.81;92.04;99981.81;4967124;28;20042;-77
2022/11/18 11:00:36;;;;;;;11.27;1.80;;;;;;;9.69;93.35;99985.78;4975054;28;20035;-81
2022/11/18 11:03:36;;;;;;;11.85;1.55;;;;;;;9.78;93.53;99987.38;4995187;28;20661;-81
2022/11/18 11:06:20;;;;;;;12.15;1.85;;;;;;;9.89;92.56;99991.34;4940297;28;20043;-80
2022/11/18 11:08:55;;;;;;;10.40;1.85;;;;;;;9.87;92.93;99983.75;4962807;28;20062;-81
2022/11/18 11:11:52;;;;;;;11.25;1.40;;;;;;;10.06;92.10;99994.66;4989141;28;20065;-80
2022/11/18 11:14:39;;;;;;;11.73;2.28;;;;;;;10.12;92.82;99983.59;4951780;28;22259;-82
2022/11/18 11:17:14;;;;;;;7.72;1.85;;;;;;;10.17;92.41;99994.25;5001992;28;20099;-81
2022/11/18 11:19:49;;;;;;;12.73;2.05;;;;;;;10.22;92.17;99991.94;4982138;28;20039;-81
2022/11/18 11:22:15;;;;;;;4.78;1.20;;;;;;;10.33;89.12;99991.56;4974049;28;20134;-82
2022/11/18 11:24:41;;;;;;;11.88;2.35;;;;;;;10.32;89.68;99987.38;4978342;28;20045;-83
2022/11/18 11:27:48;;;;;;;7.70;1.50;;;;;;;10.26;90.50;99982.81;4992372;28;20045;-81
2022/11/18 11:30:19;;;;;;;8.70;1.40;;;;;;;10.36;88.97;99981.81;4989081;28;20420;-82
2022/11/18 11:32:50;;;;;;;8.75;1.80;;;;;;;10.31;89.75;99985.75;4995679;28;20406;-80
2022/11/18 11:35:23;;;;;;;9.02;1.63;;;;;;;10.44;88.49;99987.75;4975388;28;20447;-80
2022/11/18 11:37:54;;;;;;;;;;;;;;;10.33;88.45;99990.75;4980868;28;20045;-80
2022/11/18 11:40:36;;;;;;;6.43;1.55;;;;;;;10.33;88.50;99993.34;4979659;28;19920;-81
2022/11/18 11:43:34;;;;;;;7.18;1.60;;;;;;;10.43;88.23;99991.31;4970449;28;20416;-82
2022/11/18 11:46:25;;;;;;;4.25;1.48;;;;;;;10.52;88.56;99986.88;4975473;28;20104;-81
2022/11/18 11:49:15;;;;;;;7.00;1.65;;;;;;;10.45;87.75;99996.31;5007449;28;20054;-82
2022/11/18 11:51:54;;;;;;;8.95;1.67;;;;;;;10.33;88.08;99988.16;4994300;28;20049;-81
2022/11/18 11:54:33;;;;;;;8.15;2.33;;;;;;;10.24;89.07;99991.75;4980420;28;20030;-84
2022/11/18 11:57:09;;;;;;;9.07;2.00;;;;;;;10.37;87.52;99993.81;4988098;28;20046;-80
2022/11/18 11:59:57;;;;;;;9.48;1.55;;;;;;;10.21;87.79;99989.50;5004536;28;20120;-78
2022/11/18 12:02:41;;;;;;;10.95;2.13;;;;;;;10.08;88.55;99993.50;4972022;28;20034;-81